Terminal Aerodrome Forecast
Issued by NWS

Home | Current Version | Previous Version | Text Only | Print | Product List | Glossary On
Versions: 1 2 3 4 5 6 7 8 9 10 11 12 13 14 15 16 17 18 19 20 21 22 23 24 25 26 27 28 29 30 31 32 33 34 35 36 37 38 39 40 41 42 43 44 45 46 47 48
000
FTUS45 KGJT 011130
TAFASE
TAF
KASE 011130Z 0112/0212 34005KT P6SM VCTS FEW040 BKN060CB
      TEMPO 0112/0114 VRB10G20KT -TSRA BKN040CB
     FM011600 01005KT P6SM FEW090 SCT150
     FM011900 35007KT P6SM VCTS SCT090CB BKN150
      TEMPO 0120/0124 VRB15G25KT -TSRA BKN060CB
     FM020200 17006KT P6SM VCSH SCT070 BKN100=

USA.gov is the U.S. government's official web portal to all federal, state and local government web resources and services.